createdAt,value
2023-04-11T00:01:23.557Z,3.13
2023-04-11T00:03:50.506Z,3.42
2023-04-11T00:06:17.448Z,3.33
2023-04-11T00:08:44.861Z,3.72
2023-04-11T00:11:11.680Z,3.38
2023-04-11T00:13:38.615Z,3.72
2023-04-11T00:16:07.796Z,3.35
2023-04-11T00:18:36.327Z,3.67
2023-04-11T00:21:08.202Z,3.90
2023-04-11T00:23:34.908Z,3.80
2023-04-11T00:26:01.596Z,3.95
2023-04-11T00:28:28.349Z,3.58
2023-04-11T00:30:55.189Z,3.90
2023-04-11T00:33:22.359Z,4.40
2023-04-11T00:35:49.243Z,3.80
2023-04-11T00:38:16.866Z,4.20
2023-04-11T00:40:43.822Z,3.72
2023-04-11T00:43:10.605Z,4.32
2023-04-11T00:45:38.023Z,4.20
2023-04-11T00:48:05.156Z,4.38
2023-04-11T00:50:31.868Z,4.10
2023-04-11T00:52:58.889Z,4.43
2023-04-11T00:55:27.088Z,4.18
2023-04-11T00:57:54.913Z,4.10
2023-04-11T01:00:22.512Z,4.18
2023-04-11T01:02:49.904Z,4.40
2023-04-11T01:05:17.312Z,3.80
2023-04-11T01:07:48.533Z,4.05
2023-04-11T01:10:16.580Z,3.80
2023-04-11T01:12:44.108Z,3.60
2023-04-11T01:15:10.977Z,3.72
2023-04-11T01:17:37.890Z,3.75
2023-04-11T01:20:07.856Z,3.40
2023-04-11T01:22:37.310Z,3.97
2023-04-11T01:25:04.990Z,3.97
2023-04-11T01:27:34.127Z,3.70
2023-04-11T01:30:01.840Z,3.80
2023-04-11T01:32:28.578Z,3.80
2023-04-11T01:34:58.106Z,3.80
2023-04-11T01:37:25.464Z,3.90
2023-04-11T01:39:52.417Z,3.60
2023-04-11T01:42:20.969Z,3.50
2023-04-11T01:44:50.032Z,3.58
2023-04-11T01:47:17.022Z,3.70
2023-04-11T01:49:43.779Z,3.55
2023-04-11T01:52:10.694Z,3.35
2023-04-11T01:54:37.394Z,3.38
2023-04-11T01:57:04.332Z,3.47
2023-04-11T01:59:31.023Z,3.05
2023-04-11T02:01:57.790Z,3.10
2023-04-11T02:04:24.902Z,3.38
2023-04-11T02:06:51.988Z,3.13
2023-04-11T02:09:18.730Z,2.80
2023-04-11T02:11:45.725Z,2.65
2023-04-11T02:14:14.305Z,2.63
2023-04-11T02:16:55.894Z,2.20
2023-04-11T02:19:26.012Z,2.00
2023-04-11T02:21:53.028Z,2.28
2023-04-11T02:24:19.745Z,2.08
2023-04-11T02:26:47.469Z,2.25
2023-04-11T02:29:14.110Z,1.80
2023-04-11T02:31:40.977Z,2.08
2023-04-11T02:34:07.920Z,1.77
2023-04-11T02:36:34.818Z,1.80
2023-04-11T02:39:01.603Z,1.80
2023-04-11T02:41:28.294Z,1.70
2023-04-11T02:43:55.026Z,1.80
2023-04-11T02:46:22.484Z,1.73
2023-04-11T02:48:49.232Z,1.80
2023-04-11T02:51:15.961Z,1.55
2023-04-11T02:53:42.643Z,1.92
2023-04-11T02:56:13.372Z,1.95
2023-04-11T02:58:41.698Z,1.73
2023-04-11T03:01:11.895Z,1.70
2023-04-11T03:03:38.915Z,1.77
2023-04-11T03:06:08.904Z,1.55
2023-04-11T03:08:37.182Z,1.75
2023-04-11T03:11:06.936Z,1.67
2023-04-11T03:13:33.940Z,1.90
2023-04-11T03:16:00.647Z,1.73
2023-04-11T03:18:27.377Z,1.70
2023-04-11T03:20:54.090Z,1.77
2023-04-11T03:23:20.824Z,1.95
2023-04-11T03:25:48.544Z,1.83
2023-04-11T03:28:15.604Z,2.08
2023-04-11T03:30:42.856Z,2.00
2023-04-11T03:33:09.870Z,2.17
2023-04-11T03:35:37.048Z,2.08
2023-04-11T03:38:04.122Z,2.13
2023-04-11T03:40:30.813Z,2.10
2023-04-11T03:42:57.735Z,1.85
2023-04-11T03:45:24.398Z,2.00
2023-04-11T03:47:51.101Z,2.25
2023-04-11T03:50:17.925Z,2.00
2023-04-11T03:52:44.652Z,1.90
2023-04-11T03:55:12.457Z,2.08
2023-04-11T03:57:39.118Z,2.13
2023-04-11T04:00:06.584Z,2.30
2023-04-11T04:02:33.507Z,2.00
2023-04-11T04:05:00.632Z,1.88
2023-04-11T04:07:28.384Z,2.03
2023-04-11T04:09:55.364Z,2.30
2023-04-11T04:12:22.174Z,2.20
2023-04-11T04:14:49.084Z,2.15
2023-04-11T04:17:16.314Z,2.10
2023-04-11T04:19:44.157Z,2.13
2023-04-11T04:22:11.983Z,2.40
2023-04-11T04:24:39.866Z,2.17
2023-04-11T04:27:09.469Z,2.22
2023-04-11T04:29:46.343Z,2.20
2023-04-11T04:32:20.868Z,2.05
2023-04-11T04:34:49.568Z,2.17
2023-04-11T04:37:23.786Z,2.08
2023-04-11T04:40:02.437Z,1.80
2023-04-11T04:42:30.210Z,1.80
2023-04-11T04:44:57.191Z,2.08
2023-04-11T04:47:29.102Z,1.80
2023-04-11T04:49:56.512Z,2.10
2023-04-11T04:52:27.591Z,2.00
2023-04-11T04:54:58.098Z,2.10
2023-04-11T04:57:29.807Z,1.70
2023-04-11T04:59:57.927Z,1.60
2023-04-11T05:02:28.040Z,1.52
2023-04-11T05:04:55.144Z,1.10
2023-04-11T05:07:21.887Z,1.00
2023-04-11T05:09:48.717Z,1.17
2023-04-11T05:12:17.797Z,1.00
2023-04-11T05:14:44.648Z,1.27
2023-04-11T05:17:11.403Z,1.65
2023-04-11T05:19:38.082Z,1.52
2023-04-11T05:22:04.731Z,1.98
2023-04-11T05:24:31.403Z,1.67
2023-04-11T05:26:58.299Z,1.50
2023-04-11T05:29:25.111Z,1.20
2023-04-11T05:31:51.896Z,1.20
2023-04-11T05:34:19.141Z,1.20
2023-04-11T05:36:47.266Z,1.27
2023-04-11T05:39:14.121Z,4.25
2023-04-11T05:41:40.911Z,4.57
2023-04-11T05:44:07.744Z,3.22
2023-04-11T05:46:37.037Z,1.90
2023-04-11T05:49:03.930Z,1.70
2023-04-11T05:51:30.801Z,1.48
2023-04-11T05:53:58.005Z,1.00
2023-04-11T05:56:24.979Z,1.10
2023-04-11T05:58:52.398Z,0.90
2023-04-11T06:01:19.090Z,1.10
2023-04-11T06:03:46.718Z,0.90
2023-04-11T06:06:14.133Z,1.13
2023-04-11T06:08:40.980Z,1.02
2023-04-11T06:11:07.792Z,1.30
2023-04-11T06:13:34.508Z,1.10
2023-04-11T06:16:01.922Z,1.40
2023-04-11T06:18:28.628Z,1.10
2023-04-11T06:20:55.309Z,1.20
2023-04-11T06:23:22.003Z,1.30
2023-04-11T06:25:48.830Z,1.13
2023-04-11T06:28:15.763Z,0.80
2023-04-11T06:30:42.569Z,0.88
2023-04-11T06:33:09.358Z,0.70
2023-04-11T06:35:36.256Z,1.00
2023-04-11T06:38:02.920Z,0.50
2023-04-11T06:40:29.848Z,0.82
2023-04-11T06:42:58.749Z,0.70
2023-04-11T06:45:25.847Z,0.52
2023-04-11T06:47:52.656Z,0.50
2023-04-11T06:50:19.453Z,0.50
2023-04-11T06:52:46.138Z,0.30
2023-04-11T06:55:15.549Z,0.40
2023-04-11T06:57:44.037Z,0.80
2023-04-11T07:00:12.920Z,0.50
2023-04-11T07:02:39.875Z,0.73
2023-04-11T07:05:09.294Z,0.60
2023-04-11T07:07:36.346Z,0.55
2023-04-11T07:10:03.916Z,0.40
2023-04-11T07:12:30.571Z,0.40
2023-04-11T07:14:57.263Z,0.60
2023-04-11T07:17:24.376Z,0.40
2023-04-11T07:19:51.169Z,0.60
2023-04-11T07:22:17.845Z,0.50
2023-04-11T07:24:46.401Z,0.50
2023-04-11T07:27:14.246Z,0.60
2023-04-11T07:29:41.191Z,0.50
2023-04-11T07:32:09.830Z,0.55
2023-04-11T07:34:36.680Z,1.80
2023-04-11T07:37:03.864Z,0.40
2023-04-11T07:39:30.706Z,0.60
2023-04-11T07:41:57.929Z,0.60
2023-04-11T07:44:24.605Z,1.20
2023-04-11T07:46:51.378Z,0.80
2023-04-11T07:49:18.062Z,0.90
2023-04-11T07:51:44.750Z,1.10
2023-04-11T07:54:12.425Z,0.73
2023-04-11T07:56:39.104Z,0.60
2023-04-11T07:59:05.814Z,1.08
2023-04-11T08:01:32.692Z,0.80
2023-04-11T08:03:59.871Z,0.90
2023-04-11T08:06:28.963Z,0.60
2023-04-11T08:08:56.181Z,0.40
2023-04-11T08:11:22.861Z,0.55
2023-04-11T08:13:50.108Z,0.68
2023-04-11T08:16:16.861Z,0.85
2023-04-11T08:18:46.423Z,2.05
2023-04-11T08:21:13.237Z,0.93
2023-04-11T08:23:53.744Z,1.77
2023-04-11T08:26:21.123Z,1.40
2023-04-11T08:28:47.853Z,3.28
2023-04-11T08:31:15.526Z,1.30
2023-04-11T08:33:42.291Z,1.85
2023-04-11T08:36:10.322Z,1.65
2023-04-11T08:38:38.541Z,1.27
2023-04-11T08:41:05.973Z,1.10
2023-04-11T08:43:36.641Z,1.33
2023-04-11T08:46:04.112Z,1.30
2023-04-11T08:48:32.241Z,1.23
2023-04-11T08:50:59.250Z,1.25
2023-04-11T08:53:26.903Z,0.98
2023-04-11T08:55:53.719Z,1.73
2023-04-11T08:58:20.503Z,1.35
2023-04-11T09:00:47.217Z,1.15
2023-04-11T09:03:16.803Z,1.33
2023-04-11T09:05:47.126Z,1.20
2023-04-11T09:08:16.191Z,1.85
2023-04-11T09:10:46.274Z,1.30
2023-04-11T09:13:23.633Z,1.33
2023-04-11T09:16:06.085Z,1.42
2023-04-11T09:18:44.908Z,1.33
2023-04-11T09:21:14.749Z,1.48
2023-04-11T09:23:41.791Z,1.13
2023-04-11T09:26:10.469Z,1.58
2023-04-11T09:28:42.876Z,1.30
2023-04-11T09:31:12.854Z,1.38
2023-04-11T09:33:39.906Z,1.35
2023-04-11T09:36:30.335Z,1.27
2023-04-11T09:38:58.387Z,1.10
2023-04-11T09:41:36.283Z,1.23
2023-04-11T09:44:03.380Z,1.40
2023-04-11T09:46:30.131Z,1.40
2023-04-11T09:48:57.152Z,1.55
2023-04-11T09:53:55.291Z,1.10
2023-04-11T09:56:23.955Z,1.30
2023-04-11T09:58:51.405Z,1.30
2023-04-11T10:01:19.918Z,1.52
2023-04-11T10:03:50.545Z,1.30
2023-04-11T10:06:31.213Z,1.40
2023-04-11T10:09:09.509Z,1.33
2023-04-11T10:11:36.659Z,1.20
2023-04-11T10:14:03.914Z,1.10
2023-04-11T10:16:34.024Z,1.25
2023-04-11T10:19:04.706Z,1.35
2023-04-11T10:21:32.702Z,1.63
2023-04-11T10:24:15.629Z,1.33
2023-04-11T10:26:52.544Z,1.60
2023-04-11T10:29:28.513Z,3.33
2023-04-11T10:32:16.602Z,4.57
2023-04-11T10:34:52.285Z,1.33
2023-04-11T10:37:31.014Z,1.20
2023-04-11T10:40:00.291Z,2.60
2023-04-11T10:42:34.202Z,3.00
2023-04-11T10:45:19.722Z,1.58
2023-04-11T10:48:01.504Z,2.60
2023-04-11T10:50:31.484Z,1.38
2023-04-11T10:52:59.765Z,0.98
2023-04-11T10:55:28.662Z,1.33
2023-04-11T10:58:16.683Z,1.05
2023-04-11T11:00:49.705Z,1.30
2023-04-11T11:03:30.183Z,1.10
2023-04-11T11:06:14.442Z,1.20
2023-04-11T11:08:46.762Z,1.52
2023-04-11T11:11:14.545Z,1.20
2023-04-11T11:13:46.178Z,1.55
2023-04-11T11:16:26.549Z,1.10
2023-04-11T11:18:55.178Z,1.30
2023-04-11T11:21:27.735Z,1.60
2023-04-11T11:24:00.149Z,1.48
2023-04-11T11:26:41.389Z,1.08
2023-04-11T11:29:09.011Z,1.52
2023-04-11T11:31:42.663Z,1.25
2023-04-11T11:34:22.665Z,1.80
2023-04-11T11:36:50.123Z,0.90
2023-04-11T11:39:17.214Z,1.40
2023-04-11T11:41:44.012Z,1.10
2023-04-11T11:44:22.854Z,1.10
2023-04-11T11:47:17.674Z,1.10
2023-04-11T11:49:48.514Z,1.13
2023-04-11T11:52:33.686Z,1.17
2023-04-11T11:55:01.659Z,1.20
2023-04-11T11:57:28.399Z,1.30
2023-04-11T11:59:56.470Z,0.90
2023-04-11T12:02:25.620Z,1.00
2023-04-11T12:05:05.032Z,1.02
2023-04-11T12:07:33.447Z,1.10
2023-04-11T12:10:11.913Z,1.17
2023-04-11T12:12:40.983Z,1.10
2023-04-11T12:15:17.895Z,1.17
2023-04-11T12:17:55.016Z,0.95
2023-04-11T12:20:23.851Z,0.90
2023-04-11T12:22:52.242Z,1.15
2023-04-11T12:25:21.043Z,0.90
2023-04-11T12:27:48.857Z,1.30
2023-04-11T12:30:15.713Z,0.98
2023-04-11T12:32:43.743Z,0.98
2023-04-11T12:35:11.635Z,0.93
2023-04-11T12:37:39.166Z,1.05
2023-04-11T12:40:12.049Z,1.10
2023-04-11T12:42:53.337Z,1.05
2023-04-11T12:45:23.013Z,0.85
2023-04-11T12:47:49.834Z,1.00
2023-04-11T12:50:16.754Z,0.90
2023-04-11T12:52:43.444Z,1.25
2023-04-11T12:55:10.377Z,1.00
2023-04-11T12:57:37.292Z,0.98
2023-04-11T13:00:07.972Z,1.10
2023-04-11T13:02:42.178Z,0.85
2023-04-11T13:05:10.899Z,0.90
2023-04-11T13:07:37.902Z,1.20
2023-04-11T13:10:07.136Z,0.98
2023-04-11T13:12:39.746Z,1.00
2023-04-11T13:15:07.962Z,1.10
2023-04-11T13:17:35.022Z,1.10
2023-04-11T13:20:02.185Z,0.70
2023-04-11T13:22:28.870Z,1.15
2023-04-11T13:24:55.617Z,1.10
2023-04-11T13:27:23.034Z,1.30
2023-04-11T13:29:49.743Z,1.00
2023-04-11T13:32:16.477Z,0.95
2023-04-11T13:34:43.168Z,1.10
2023-04-11T13:37:09.897Z,1.00
2023-04-11T13:39:36.647Z,1.05
2023-04-11T13:42:03.365Z,1.08
2023-04-11T13:44:30.146Z,0.90
2023-04-11T13:46:57.059Z,1.08
2023-04-11T13:49:23.736Z,1.00
2023-04-11T13:51:50.431Z,1.10
2023-04-11T13:54:17.178Z,0.80
2023-04-11T13:56:43.875Z,0.90
2023-04-11T13:59:10.619Z,0.80
2023-04-11T14:01:37.894Z,0.98
2023-04-11T14:04:04.948Z,1.00
2023-04-11T14:06:31.865Z,1.30
2023-04-11T14:08:58.973Z,1.10
2023-04-11T14:11:25.823Z,0.98
2023-04-11T14:13:52.709Z,0.90
2023-04-11T14:16:19.567Z,1.08
2023-04-11T14:18:46.566Z,1.10
2023-04-11T14:21:13.417Z,0.77
2023-04-11T14:23:40.514Z,0.90
2023-04-11T14:26:07.292Z,0.80
2023-04-11T14:28:34.114Z,0.90
2023-04-11T14:31:00.982Z,1.10
2023-04-11T14:33:27.743Z,1.30
2023-04-11T14:35:54.422Z,1.40
2023-04-11T14:38:21.161Z,1.50
2023-04-11T14:40:47.895Z,1.60
2023-04-11T14:43:14.644Z,1.80
2023-04-11T14:45:41.376Z,1.98
2023-04-11T14:48:08.147Z,1.98
2023-04-11T14:50:34.892Z,2.40
2023-04-11T14:53:01.694Z,1.65
2023-04-11T14:55:28.409Z,2.50
2023-04-11T14:57:55.995Z,2.33
2023-04-11T15:00:24.684Z,2.22
2023-04-11T15:02:54.478Z,1.67
2023-04-11T15:05:22.510Z,1.88
2023-04-11T15:07:51.458Z,2.78
2023-04-11T15:10:20.585Z,2.20
2023-04-11T15:12:47.392Z,3.10
2023-04-11T15:15:14.529Z,1.85
2023-04-11T15:17:47.834Z,2.55
2023-04-11T15:20:15.278Z,3.38
2023-04-11T15:22:44.185Z,2.22
2023-04-11T15:25:13.811Z,1.73
2023-04-11T15:27:41.105Z,1.75
2023-04-11T15:30:08.397Z,1.80
2023-04-11T15:32:35.369Z,1.55
2023-04-11T15:35:02.199Z,1.70
2023-04-11T15:37:29.120Z,1.55
2023-04-11T15:39:57.698Z,1.90
2023-04-11T15:42:24.625Z,1.83
2023-04-11T15:44:51.341Z,1.73
2023-04-11T15:47:18.397Z,3.88
2023-04-11T15:49:45.212Z,8.10
2023-04-11T15:52:12.194Z,2.00
2023-04-11T15:54:38.944Z,1.77
2023-04-11T15:57:05.780Z,1.92
2023-04-11T15:59:33.630Z,2.33
2023-04-11T16:02:00.373Z,1.70
2023-04-11T16:04:27.217Z,1.60
2023-04-11T16:06:54.502Z,1.83
2023-04-11T16:09:21.273Z,1.70
2023-04-11T16:11:48.127Z,1.38
2023-04-11T16:14:14.823Z,1.60
2023-04-11T16:16:44.024Z,1.80
2023-04-11T16:19:10.696Z,1.40
2023-04-11T16:21:38.761Z,1.50
2023-04-11T16:24:05.535Z,1.48
2023-04-11T16:26:32.267Z,1.45
2023-04-11T16:28:58.949Z,1.42
2023-04-11T16:31:25.635Z,14.45
2023-04-11T16:33:52.984Z,2.50
2023-04-11T16:36:20.451Z,2.38
2023-04-11T16:38:49.599Z,2.15
2023-04-11T16:41:17.391Z,2.15
2023-04-11T16:43:44.610Z,2.03
2023-04-11T16:46:15.439Z,2.20
2023-04-11T16:48:43.427Z,3.00
2023-04-11T16:51:12.041Z,2.20
2023-04-11T16:53:39.288Z,1.98
2023-04-11T16:56:06.433Z,2.15
2023-04-11T16:58:33.689Z,2.00
2023-04-11T17:01:01.476Z,1.70
2023-04-11T17:03:28.476Z,2.05
2023-04-11T17:05:55.499Z,1.50
2023-04-11T17:08:22.259Z,1.90
2023-04-11T17:10:49.002Z,1.88
2023-04-11T17:13:18.442Z,1.90
2023-04-11T17:15:45.814Z,1.75
2023-04-11T17:18:14.482Z,2.10
2023-04-11T17:20:43.257Z,1.92
2023-04-11T17:23:10.208Z,1.95
2023-04-11T17:25:36.948Z,1.73
2023-04-11T17:28:04.033Z,1.85
2023-04-11T17:30:31.866Z,1.88
2023-04-11T17:32:58.928Z,1.65
2023-04-11T17:35:27.807Z,1.60
2023-04-11T17:37:55.200Z,1.70
2023-04-11T17:40:21.961Z,1.80
2023-04-11T17:42:49.106Z,1.40
2023-04-11T17:45:18.616Z,1.73
2023-04-11T17:47:48.680Z,1.95
2023-04-11T17:50:16.330Z,1.63
2023-04-11T17:52:45.023Z,1.83
2023-04-11T17:55:13.148Z,1.75
2023-04-11T17:57:40.357Z,1.70
2023-04-11T18:00:19.677Z,1.60
2023-04-11T18:02:48.869Z,1.73
2023-04-11T18:05:23.759Z,2.00
2023-04-11T18:07:52.246Z,3.33
2023-04-11T18:10:18.911Z,3.00
2023-04-11T18:12:51.265Z,2.33
2023-04-11T18:15:18.551Z,2.40
2023-04-11T18:17:45.634Z,2.90
2023-04-11T18:20:13.327Z,2.80
2023-04-11T18:22:41.263Z,2.50
2023-04-11T18:25:08.982Z,3.95
2023-04-11T18:27:37.267Z,2.63
2023-04-11T18:30:07.354Z,2.83
2023-04-11T18:32:40.590Z,3.13
2023-04-11T18:35:08.348Z,3.38
2023-04-11T18:37:37.964Z,3.20
2023-04-11T18:40:11.646Z,4.43
2023-04-11T18:42:39.270Z,4.47
2023-04-11T18:45:06.577Z,4.40
2023-04-11T18:47:33.822Z,4.97
2023-04-11T18:50:01.403Z,8.05
2023-04-11T18:52:29.294Z,6.57
2023-04-11T18:54:56.473Z,10.98
2023-04-11T18:57:26.098Z,6.72
2023-04-11T18:59:56.339Z,5.20
2023-04-11T19:02:24.549Z,4.88
2023-04-11T19:04:55.215Z,3.53
2023-04-11T19:07:23.233Z,3.25
2023-04-11T19:09:50.013Z,3.83
2023-04-11T19:12:17.265Z,4.15
2023-04-11T19:14:44.078Z,3.42
2023-04-11T19:17:12.709Z,3.63
2023-04-11T19:19:39.550Z,4.72
2023-04-11T19:22:07.410Z,4.60
2023-04-11T19:24:34.159Z,4.25
2023-04-11T19:27:01.605Z,3.17
2023-04-11T19:29:28.400Z,2.90
2023-04-11T19:31:55.117Z,2.75
2023-04-11T19:34:21.904Z,2.33
2023-04-11T19:36:48.645Z,2.60
2023-04-11T19:39:15.359Z,2.15
2023-04-11T19:41:46.375Z,2.75
2023-04-11T19:44:13.527Z,2.83
2023-04-11T19:46:41.091Z,2.30
2023-04-11T19:49:08.251Z,2.30
2023-04-11T19:51:35.396Z,2.40
2023-04-11T19:54:02.214Z,3.42
2023-04-11T19:56:28.896Z,3.17
2023-04-11T19:58:55.558Z,4.82
2023-04-11T20:01:22.230Z,2.88
2023-04-11T20:03:49.090Z,3.50
2023-04-11T20:06:16.085Z,2.60
2023-04-11T20:08:42.789Z,2.90
2023-04-11T20:11:13.776Z,2.50
2023-04-11T20:13:40.526Z,2.30
2023-04-11T20:16:08.724Z,2.55
2023-04-11T20:18:35.486Z,2.47
2023-04-11T20:21:03.194Z,2.22
2023-04-11T20:23:31.427Z,3.22
2023-04-11T20:25:58.300Z,4.20
2023-04-11T20:28:25.340Z,3.90
2023-04-11T20:30:52.221Z,3.60
2023-04-11T20:33:18.975Z,2.40
2023-04-11T20:35:45.673Z,2.25
2023-04-11T20:38:12.346Z,4.03
2023-04-11T20:40:39.388Z,4.90
2023-04-11T20:43:06.596Z,3.38
2023-04-11T20:45:33.794Z,3.95
2023-04-11T20:48:02.027Z,3.70
2023-04-11T20:50:33.516Z,3.05
2023-04-11T20:53:01.556Z,2.47
2023-04-11T20:55:28.424Z,2.90
2023-04-11T20:57:55.110Z,3.45
2023-04-11T21:00:22.785Z,4.15
2023-04-11T21:02:53.059Z,3.30
2023-04-11T21:05:24.896Z,2.50
2023-04-11T21:07:54.353Z,3.40
2023-04-11T21:10:21.481Z,3.40
2023-04-11T21:12:51.558Z,3.10
2023-04-11T21:15:19.842Z,3.28
2023-04-11T21:17:47.218Z,3.40
2023-04-11T21:20:20.962Z,3.35
2023-04-11T21:22:48.927Z,3.08
2023-04-11T21:25:16.430Z,2.35
2023-04-11T21:27:43.613Z,2.67
2023-04-11T21:30:11.466Z,2.67
2023-04-11T21:32:39.062Z,2.88
2023-04-11T21:35:11.218Z,2.45
2023-04-11T21:37:37.937Z,2.50
2023-04-11T21:40:05.199Z,1.77
2023-04-11T21:42:32.007Z,2.10
2023-04-11T21:44:58.697Z,2.20
2023-04-11T21:47:25.746Z,2.30
2023-04-11T21:49:52.417Z,2.40
2023-04-11T21:52:19.138Z,1.90
2023-04-11T21:54:46.620Z,2.00
2023-04-11T21:57:13.357Z,2.30
2023-04-11T21:59:40.084Z,1.85
2023-04-11T22:02:06.932Z,1.88
2023-04-11T22:04:47.231Z,1.98
2023-04-11T22:07:26.430Z,2.03
2023-04-11T22:10:03.424Z,2.10
2023-04-11T22:12:30.135Z,2.25
2023-04-11T22:14:57.198Z,1.92
2023-04-11T22:17:24.189Z,2.05
2023-04-11T22:19:50.924Z,2.20
2023-04-11T22:22:18.779Z,1.88
2023-04-11T22:24:48.927Z,2.20
2023-04-11T22:27:18.266Z,2.20
2023-04-11T22:29:45.521Z,2.58
2023-04-11T22:32:12.408Z,2.70
2023-04-11T22:34:39.201Z,2.60
2023-04-11T22:37:05.849Z,2.15
2023-04-11T22:39:32.531Z,2.28
2023-04-11T22:41:59.224Z,2.20
2023-04-11T22:44:25.892Z,2.25
2023-04-11T22:47:07.058Z,2.08
2023-04-11T22:49:40.955Z,2.50
2023-04-11T22:52:09.377Z,1.88
2023-04-11T22:54:36.395Z,1.83
2023-04-11T22:57:03.134Z,1.88
2023-04-11T22:59:29.925Z,2.58
2023-04-11T23:01:56.765Z,2.03
2023-04-11T23:04:23.884Z,2.08
2023-04-11T23:06:51.362Z,2.42
2023-04-11T23:09:18.961Z,2.15
2023-04-11T23:11:47.055Z,2.13
2023-04-11T23:14:15.527Z,2.22
2023-04-11T23:16:43.555Z,2.75
2023-04-11T23:19:10.582Z,2.90
2023-04-11T23:21:37.867Z,2.80
2023-04-11T23:24:06.620Z,3.08
2023-04-11T23:26:33.643Z,2.97
2023-04-11T23:29:02.430Z,3.20
2023-04-11T23:31:30.227Z,3.38
2023-04-11T23:33:57.142Z,3.13
2023-04-11T23:36:24.155Z,3.30
2023-04-11T23:38:51.496Z,3.45
2023-04-11T23:41:18.701Z,3.70
2023-04-11T23:43:45.615Z,3.35
2023-04-11T23:46:13.387Z,3.33
2023-04-11T23:48:40.136Z,3.63
2023-04-11T23:51:07.244Z,3.42
2023-04-11T23:53:34.321Z,3.22
2023-04-11T23:56:01.022Z,3.35
2023-04-11T23:58:27.721Z,3.22
